»·PEaware :: WAT306 KHCR-KHND

WAT306 :: KHCR-KHND

FLIGHT INFORMATION

Flight Status: Arrived
Operator:
Walker Air Transport
More flights by this operator :: More flights under this callsign
Pilot: Ethan S. (29221)
Aircraft: SOCATA TBM-900
(TBM9)
More flights by this aircraft type
Origin: KHCR Heber Valley
United States
Destination: KHND Henderson
United States
More flights between these airports :: More routes between these airports
Route: +FFU J9 MLF LUXOR2
File this flight plan on PilotEdge
Remarks:
Altitude:
(Current/Filed)
30,000ft
Speed:
(Current/Filed)
320kts
Departed: 04-Sep-20 12:46 PM
Arrived: 04-Sep-20 02:01 PM
Distance/Time
Traveled:
322nm/1:15
Distance/Time
To Go:
Arrived

Flight Plot

Page will automatically refresh every two minutes.

Flight plan parsing failed; only flown route is shown


Map Options




Map Legend


Flown Route
Filed Route
Departure Airport
Arrival Airport
Navaid (VOR, NDB)
Fix

Horizontal Profiles

Position Reports

Time Latitude Longitude Heading Altitude Ground
Speed
04-Sep-20 12:38 40.483394 -111.423850 49 5622ft 0kts
04-Sep-20 12:39 40.483394 -111.423850 49 5622ft 0kts
04-Sep-20 12:40 40.483394 -111.423850 49 5622ft 0kts
04-Sep-20 12:41 40.483394 -111.423850 49 5622ft 0kts
04-Sep-20 12:42 40.484091 -111.423924 48 5621ft 9kts
04-Sep-20 12:43 40.486459 -111.420276 50 5629ft 15kts
04-Sep-20 12:44 40.487377 -111.418956 8 5631ft 1kts
04-Sep-20 12:45 40.476833 -111.437102 231 6039ft 128kts
04-Sep-20 12:46 40.457974 -111.483537 241 8207ft 143kts
04-Sep-20 12:47 40.449370 -111.535151 263 10194ft 148kts
04-Sep-20 12:48 40.445668 -111.591606 259 11834ft 155kts
04-Sep-20 12:49 40.422346 -111.641536 235 14039ft 157kts
04-Sep-20 12:50 40.398288 -111.690448 235 16249ft 158kts
04-Sep-20 12:51 40.373850 -111.740104 235 18714ft 161kts
04-Sep-20 12:52 40.349138 -111.790245 236 20996ft 167kts
04-Sep-20 12:53 40.323304 -111.842592 238 23416ft 172kts
04-Sep-20 12:54 40.296485 -111.896860 240 25797ft 179kts
04-Sep-20 12:55 40.261911 -111.947319 209 28036ft 198kts
04-Sep-20 12:56 40.208848 -111.978600 208 30009ft 211kts
04-Sep-20 12:57 40.144877 -112.015523 207 30356ft 279kts
04-Sep-20 12:58 40.067764 -112.059728 206 30330ft 309kts
04-Sep-20 12:59 39.985482 -112.106843 206 30321ft 320kts
04-Sep-20 13:00 39.901358 -112.154906 206 30315ft 324kts
04-Sep-20 13:01 39.816200 -112.203430 206 30308ft 324kts
04-Sep-20 13:02 39.731402 -112.251619 206 30302ft 325kts
04-Sep-20 13:03 39.647000 -112.299453 206 30300ft 325kts
04-Sep-20 13:04 39.562058 -112.347463 206 30300ft 325kts
04-Sep-20 13:05 39.477025 -112.395395 206 30300ft 325kts
04-Sep-20 13:06 39.391708 -112.443359 206 30301ft 325kts
04-Sep-20 13:08 39.306847 -112.490939 206 30301ft 325kts
04-Sep-20 13:09 39.221993 -112.538389 206 30301ft 325kts
04-Sep-20 13:10 39.137067 -112.585796 205 30283ft 325kts
04-Sep-20 13:11 39.051676 -112.633252 206 30283ft 325kts
04-Sep-20 13:12 38.966107 -112.680748 204 30287ft 326kts
04-Sep-20 13:13 38.880203 -112.728288 203 30287ft 326kts
04-Sep-20 13:14 38.794797 -112.775384 203 30291ft 327kts
04-Sep-20 13:15 38.708674 -112.822780 204 30292ft 327kts
04-Sep-20 13:16 38.622999 -112.870039 201 30291ft 326kts
04-Sep-20 13:17 38.537267 -112.916751 201 30292ft 325kts
04-Sep-20 13:18 38.450636 -112.964056 202 30292ft 325kts
04-Sep-20 13:19 38.365124 -113.010633 202 30293ft 324kts
04-Sep-20 13:20 38.281316 -113.061906 205 30293ft 324kts
04-Sep-20 13:21 38.197914 -113.113144 205 30295ft 324kts
04-Sep-20 13:22 38.114210 -113.164431 205 30306ft 323kts
04-Sep-20 13:22 38.044317 -113.207156 205 30320ft 323kts
04-Sep-20 13:24 37.946720 -113.266664 205 30330ft 324kts
04-Sep-20 13:25 37.863647 -113.317175 205 30329ft 324kts
04-Sep-20 13:25 37.794620 -113.359051 205 30329ft 324kts
04-Sep-20 13:27 37.697629 -113.417745 205 30329ft 324kts
04-Sep-20 13:27 37.628300 -113.459595 205 30329ft 324kts
04-Sep-20 13:28 37.545696 -113.509345 205 30276ft 325kts
04-Sep-20 13:30 37.447949 -113.568055 205 30133ft 327kts
04-Sep-20 13:30 37.378061 -113.609929 205 30110ft 325kts
04-Sep-20 13:31 37.294928 -113.659626 204 30109ft 324kts
04-Sep-20 13:32 37.210696 -113.709850 204 30049ft 325kts
04-Sep-20 13:33 37.127020 -113.759624 204 30050ft 324kts
04-Sep-20 13:34 37.043899 -113.808969 203 29597ft 337kts
04-Sep-20 13:35 36.955808 -113.861091 203 28407ft 349kts
04-Sep-20 13:36 36.865138 -113.914594 203 26729ft 351kts
04-Sep-20 13:37 36.777388 -113.966263 203 24397ft 332kts
04-Sep-20 13:38 36.691389 -114.016769 203 21974ft 322kts
04-Sep-20 13:39 36.607436 -114.065957 203 19684ft 313kts
04-Sep-20 13:40 36.547214 -114.146907 239 17404ft 312kts
04-Sep-20 13:41 36.502319 -114.245640 239 15169ft 307kts
04-Sep-20 13:42 36.459425 -114.339605 239 14023ft 280kts
04-Sep-20 13:43 36.419873 -114.426012 239 14021ft 264kts
04-Sep-20 13:44 36.374335 -114.500479 216 14034ft 263kts
04-Sep-20 13:45 36.313292 -114.559199 217 14028ft 269kts
04-Sep-20 13:46 36.238358 -114.587758 191 13311ft 283kts
04-Sep-20 13:47 36.157401 -114.608661 191 12274ft 288kts
04-Sep-20 13:48 36.076169 -114.629528 191 11233ft 288kts
04-Sep-20 13:49 35.995034 -114.650722 191 10192ft 288kts
04-Sep-20 13:50 35.917110 -114.671575 194 9123ft 263kts
04-Sep-20 13:51 35.875365 -114.747079 241 8030ft 260kts
04-Sep-20 13:52 35.841674 -114.827138 241 7467ft 254kts
04-Sep-20 13:53 35.808064 -114.907018 244 6958ft 248kts
04-Sep-20 13:54 35.817675 -114.992729 283 6966ft 245kts
04-Sep-20 13:55 35.839238 -115.067176 301 5750ft 195kts
04-Sep-20 13:56 35.873750 -115.107537 322 4967ft 134kts
04-Sep-20 13:57 35.900394 -115.132430 330 4654ft 109kts
04-Sep-20 13:58 35.928786 -115.135949 1 3483ft 100kts
04-Sep-20 13:59 35.957337 -115.135621 0 2669ft 92kts
04-Sep-20 14:00 35.970937 -115.136238 298 2441ft 0kts
04-Sep-20 14:01 35.973769 -115.136425 1 2426ft 19kts
04-Sep-20 14:02 35.977290 -115.137005 240 2411ft 11kts
04-Sep-20 14:03 35.977756 -115.137957 0 2408ft 0kts
04-Sep-20 14:04 35.977801 -115.137957 359 2407ft 0kts
04-Sep-20 14:05 35.977801 -115.137957 359 2407ft 0kts

Navigation Log

Ident Type
Flight plan parsing failed, navigation log unavailable